createdAt,value
2017-10-21T00:01:24.963Z,28.57
2017-10-21T00:03:52.460Z,46.20
2017-10-21T00:06:19.957Z,56.83
2017-10-21T00:08:47.486Z,29.57
2017-10-21T00:11:14.975Z,45.10
2017-10-21T00:13:42.472Z,29.43
2017-10-21T00:16:10.130Z,19.53
2017-10-21T00:18:37.638Z,23.93
2017-10-21T00:21:05.133Z,21.53
2017-10-21T00:23:32.668Z,51.80
2017-10-21T00:26:00.159Z,53.80
2017-10-21T00:28:27.653Z,30.97
2017-10-21T00:30:55.222Z,40.03
2017-10-21T00:33:22.737Z,34.67
2017-10-21T00:35:50.289Z,33.60
2017-10-21T00:38:17.813Z,42.20
2017-10-21T00:40:45.312Z,24.23
2017-10-21T00:43:12.810Z,19.87
2017-10-21T00:45:40.355Z,28.33
2017-10-21T00:48:07.848Z,31.23
2017-10-21T00:50:35.360Z,32.53
2017-10-21T00:53:02.895Z,24.93
2017-10-21T00:55:30.456Z,16.80
2017-10-21T00:57:57.952Z,33.57
2017-10-21T01:00:25.689Z,28.00
2017-10-21T01:02:53.180Z,27.33
2017-10-21T01:05:20.683Z,15.93
2017-10-21T01:07:48.222Z,16.30
2017-10-21T01:10:15.825Z,17.30
2017-10-21T01:12:43.316Z,19.07
2017-10-21T01:15:10.936Z,15.80
2017-10-21T01:17:38.516Z,24.03
2017-10-21T01:20:06.007Z,20.00
2017-10-21T01:22:33.719Z,36.47
2017-10-21T01:25:01.225Z,19.47
2017-10-21T01:27:28.726Z,20.33
2017-10-21T01:29:56.267Z,16.37
2017-10-21T01:32:23.850Z,11.80
2017-10-21T01:34:51.343Z,18.00
2017-10-21T01:37:18.868Z,21.37
2017-10-21T01:39:46.359Z,16.83
2017-10-21T01:42:13.857Z,15.40
2017-10-21T01:44:41.379Z,18.80
2017-10-21T01:47:08.876Z,16.03
2017-10-21T01:49:36.369Z,21.77
2017-10-21T01:52:04.020Z,13.60
2017-10-21T01:54:31.511Z,15.60
2017-10-21T01:56:59.003Z,17.80
2017-10-21T01:59:26.600Z,14.57
2017-10-21T02:01:54.088Z,9.50
2017-10-21T02:04:21.575Z,13.10
2017-10-21T02:06:49.098Z,18.57
2017-10-21T02:09:16.584Z,17.03
2017-10-21T02:11:44.079Z,19.80
2017-10-21T02:14:11.612Z,20.07
2017-10-21T02:16:39.199Z,19.10
2017-10-21T02:19:06.691Z,15.43
2017-10-21T02:21:34.520Z,9.63
2017-10-21T02:24:02.009Z,12.43
2017-10-21T02:26:29.544Z,11.13
2017-10-21T02:28:57.069Z,12.03
2017-10-21T02:31:24.554Z,9.70
2017-10-21T02:33:52.040Z,14.60
2017-10-21T02:36:19.581Z,15.63
2017-10-21T02:38:47.076Z,11.80
2017-10-21T02:41:14.795Z,11.10
2017-10-21T02:43:42.280Z,12.87
2017-10-21T02:46:09.782Z,13.50
2017-10-21T02:48:37.319Z,11.10
2017-10-21T02:51:04.817Z,13.23
2017-10-21T02:53:32.317Z,10.50
2017-10-21T02:55:59.855Z,9.67
2017-10-21T02:58:27.351Z,16.50
2017-10-21T03:00:54.842Z,10.40
2017-10-21T03:03:22.414Z,13.57
2017-10-21T03:05:49.898Z,11.13
2017-10-21T03:08:17.401Z,12.27
2017-10-21T03:10:44.940Z,11.23
2017-10-21T03:13:12.426Z,17.40
2017-10-21T03:15:39.913Z,9.30
2017-10-21T03:18:07.438Z,12.13
2017-10-21T03:20:35.034Z,11.30
2017-10-21T03:23:02.592Z,9.53
2017-10-21T03:25:30.120Z,11.23
2017-10-21T03:27:57.618Z,9.90
2017-10-21T03:30:25.113Z,11.43
2017-10-21T03:32:52.652Z,11.10
2017-10-21T03:35:20.136Z,9.60
2017-10-21T03:37:47.616Z,7.40
2017-10-21T03:40:15.166Z,12.37
2017-10-21T03:42:44.467Z,9.37
2017-10-21T03:45:12.047Z,7.20
2017-10-21T03:47:39.581Z,24.60
2017-10-21T03:50:07.090Z,14.23
2017-10-21T03:52:34.571Z,13.67
2017-10-21T03:55:02.192Z,9.17
2017-10-21T03:57:29.699Z,12.03
2017-10-21T03:59:57.190Z,15.30
2017-10-21T04:02:24.727Z,12.90
2017-10-21T04:04:52.322Z,11.20
2017-10-21T04:07:19.807Z,6.87
2017-10-21T04:09:47.353Z,8.60
2017-10-21T04:12:14.837Z,5.80
2017-10-21T04:14:42.326Z,7.17
2017-10-21T04:17:09.854Z,7.90
2017-10-21T04:19:37.345Z,11.57
2017-10-21T04:22:04.834Z,11.17
2017-10-21T04:24:32.395Z,8.97
2017-10-21T04:26:59.886Z,6.93
2017-10-21T04:29:27.372Z,10.10
2017-10-21T04:31:54.891Z,4.47
2017-10-21T04:34:22.433Z,7.00
2017-10-21T04:36:49.947Z,8.90
2017-10-21T04:39:17.433Z,8.37
2017-10-21T04:41:45.105Z,19.07
2017-10-21T04:44:12.588Z,6.47
2017-10-21T04:46:40.116Z,7.23
2017-10-21T04:49:07.652Z,9.20
2017-10-21T04:51:35.141Z,7.87
2017-10-21T04:54:02.631Z,4.87
2017-10-21T04:56:30.172Z,7.40
2017-10-21T04:58:57.654Z,7.20
2017-10-21T05:01:25.163Z,5.00
2017-10-21T05:03:52.824Z,4.57
2017-10-21T05:06:20.324Z,8.90
2017-10-21T05:08:47.817Z,9.87
2017-10-21T05:11:15.340Z,9.60
2017-10-21T05:13:42.863Z,11.77
2017-10-21T05:16:10.427Z,16.27
2017-10-21T05:18:37.936Z,9.83
2017-10-21T05:21:05.424Z,7.00
2017-10-21T05:23:32.973Z,8.40
2017-10-21T05:26:00.492Z,5.53
2017-10-21T05:28:27.994Z,17.50
2017-10-21T05:30:55.659Z,11.93
2017-10-21T05:33:23.155Z,6.83
2017-10-21T05:35:50.651Z,6.87
2017-10-21T05:38:18.245Z,12.47
2017-10-21T05:40:45.828Z,9.63
2017-10-21T05:43:13.325Z,12.73
2017-10-21T05:45:40.843Z,9.50
2017-10-21T05:48:08.341Z,12.30
2017-10-21T05:50:35.835Z,12.00
2017-10-21T05:53:03.363Z,10.10
2017-10-21T05:55:30.854Z,12.53
2017-10-21T05:57:58.353Z,10.90
2017-10-21T06:00:25.892Z,8.10
2017-10-21T06:02:53.380Z,7.53
2017-10-21T06:05:20.870Z,17.60
2017-10-21T06:07:48.415Z,12.10
2017-10-21T06:10:15.897Z,9.83
2017-10-21T06:12:43.382Z,9.93
2017-10-21T06:15:10.903Z,9.07
2017-10-21T06:17:39.732Z,11.03
2017-10-21T06:20:07.253Z,9.53
2017-10-21T06:22:34.786Z,12.83
2017-10-21T06:25:02.287Z,15.63
2017-10-21T06:27:29.783Z,15.57
2017-10-21T06:29:57.307Z,12.73
2017-10-21T06:32:24.798Z,10.30
2017-10-21T06:34:52.283Z,9.90
2017-10-21T06:37:19.823Z,13.73
2017-10-21T06:39:47.340Z,13.27
2017-10-21T06:42:14.833Z,16.83
2017-10-21T06:44:42.450Z,7.70
2017-10-21T06:47:09.946Z,12.43
2017-10-21T06:49:37.435Z,10.43
2017-10-21T06:52:04.988Z,10.07
2017-10-21T06:54:32.481Z,9.67
2017-10-21T06:57:00.049Z,17.90
2017-10-21T06:59:27.560Z,20.30
2017-10-21T07:01:55.050Z,11.10
2017-10-21T07:04:22.608Z,12.37
2017-10-21T07:06:50.238Z,18.80
2017-10-21T07:09:17.728Z,11.17
2017-10-21T07:11:45.215Z,8.40
2017-10-21T07:14:12.753Z,10.60
2017-10-21T07:16:40.292Z,23.10
2017-10-21T07:19:07.863Z,13.93
2017-10-21T07:21:35.436Z,11.57
2017-10-21T07:24:03.075Z,11.63
2017-10-21T07:26:30.563Z,12.17
2017-10-21T07:28:58.046Z,8.30
2017-10-21T07:31:25.647Z,11.23
2017-10-21T07:33:53.142Z,10.17
2017-10-21T07:36:20.637Z,15.33
2017-10-21T07:38:48.153Z,19.60
2017-10-21T07:41:15.649Z,10.13
2017-10-21T07:43:43.137Z,29.03
2017-10-21T07:46:10.651Z,13.97
2017-10-21T07:48:38.144Z,12.20
2017-10-21T07:51:05.634Z,17.50
2017-10-21T07:53:33.196Z,9.67
2017-10-21T07:56:00.682Z,15.53
2017-10-21T07:58:28.167Z,13.90
2017-10-21T08:00:55.712Z,13.90
2017-10-21T08:03:23.201Z,12.33
2017-10-21T08:05:50.687Z,13.73
2017-10-21T08:08:18.346Z,13.90
2017-10-21T08:10:45.846Z,13.07
2017-10-21T08:13:13.329Z,7.40
2017-10-21T08:15:40.943Z,17.03
2017-10-21T08:18:08.472Z,13.57
2017-10-21T08:20:35.964Z,7.60
2017-10-21T08:23:03.496Z,6.57
2017-10-21T08:25:31.077Z,9.30
2017-10-21T08:27:58.574Z,13.50
2017-10-21T08:30:26.124Z,10.00
2017-10-21T08:32:53.619Z,9.43
2017-10-21T08:35:21.109Z,13.10
2017-10-21T08:37:48.650Z,10.37
2017-10-21T08:40:16.149Z,11.03
2017-10-21T08:42:43.667Z,10.70
2017-10-21T08:45:11.204Z,11.63
2017-10-21T08:47:38.703Z,12.00
2017-10-21T08:50:06.190Z,9.20
2017-10-21T08:52:33.725Z,8.73
2017-10-21T08:55:01.208Z,15.67
2017-10-21T08:57:28.695Z,8.93
2017-10-21T08:59:56.213Z,19.17
2017-10-21T09:02:23.696Z,9.60
2017-10-21T09:04:51.235Z,16.37
2017-10-21T09:07:18.728Z,10.90
2017-10-21T09:09:46.215Z,17.37
2017-10-21T09:12:13.748Z,9.73
2017-10-21T09:14:41.248Z,12.80
2017-10-21T09:17:08.737Z,9.67
2017-10-21T09:19:36.337Z,10.17
2017-10-21T09:22:03.840Z,10.83
2017-10-21T09:24:31.337Z,13.20
2017-10-21T09:26:58.874Z,19.77
2017-10-21T09:29:26.362Z,16.13
2017-10-21T09:31:53.846Z,9.53
2017-10-21T09:34:21.396Z,7.50
2017-10-21T09:36:48.889Z,15.50
2017-10-21T09:39:16.392Z,20.30
2017-10-21T09:41:43.925Z,8.77
2017-10-21T09:44:11.422Z,11.83
2017-10-21T09:46:38.947Z,15.10
2017-10-21T09:49:06.436Z,9.53
2017-10-21T09:51:33.919Z,14.30
2017-10-21T09:54:01.450Z,10.83
2017-10-21T09:56:28.943Z,10.10
2017-10-21T09:58:56.427Z,13.97
2017-10-21T10:01:24.140Z,13.57
2017-10-21T10:03:51.649Z,14.03
2017-10-21T10:06:19.249Z,7.83
2017-10-21T10:08:46.772Z,8.23
2017-10-21T10:11:14.267Z,15.80
2017-10-21T10:13:41.760Z,11.13
2017-10-21T10:16:09.280Z,15.70
2017-10-21T10:18:36.841Z,15.23
2017-10-21T10:21:04.341Z,11.20
2017-10-21T10:23:31.862Z,11.47
2017-10-21T10:25:59.419Z,14.03
2017-10-21T10:28:26.915Z,11.13
2017-10-21T10:30:54.434Z,9.53
2017-10-21T10:33:21.946Z,13.43
2017-10-21T10:35:49.466Z,16.57
2017-10-21T10:38:16.980Z,15.30
2017-10-21T10:40:44.512Z,13.10
2017-10-21T10:43:12.025Z,18.93
2017-10-21T10:45:39.539Z,17.60
2017-10-21T10:48:07.160Z,14.10
2017-10-21T10:50:34.648Z,8.93
2017-10-21T10:53:02.137Z,14.60
2017-10-21T10:55:29.713Z,12.80
2017-10-21T10:57:57.221Z,15.57
2017-10-21T11:00:24.725Z,19.33
2017-10-21T11:02:52.399Z,32.77
2017-10-21T11:05:19.905Z,35.23
2017-10-21T11:07:47.392Z,13.87
2017-10-21T11:10:14.941Z,75.10
2017-10-21T11:12:43.371Z,7.90
2017-10-21T11:15:10.873Z,21.87
2017-10-21T11:17:38.571Z,13.47
2017-10-21T11:20:06.070Z,11.03
2017-10-21T11:22:33.563Z,17.53
2017-10-21T11:25:01.149Z,12.00
2017-10-21T11:27:28.670Z,14.90
2017-10-21T11:29:56.256Z,8.40
2017-10-21T11:32:23.746Z,12.10
2017-10-21T11:34:51.272Z,9.43
2017-10-21T11:37:18.759Z,20.83
2017-10-21T11:39:46.296Z,15.63
2017-10-21T11:42:13.876Z,14.37
2017-10-21T11:44:41.360Z,10.20
2017-10-21T11:47:08.864Z,17.03
2017-10-21T11:49:36.363Z,12.43
2017-10-21T11:52:03.897Z,19.77
2017-10-21T11:54:31.388Z,21.70
2017-10-21T11:56:58.874Z,13.33
2017-10-21T11:59:26.409Z,11.57
2017-10-21T12:01:53.927Z,13.07
2017-10-21T12:04:21.495Z,21.23
2017-10-21T12:06:49.144Z,7.80
2017-10-21T12:09:16.717Z,16.80
2017-10-21T12:11:44.209Z,8.60
2017-10-21T12:14:11.820Z,28.93
2017-10-21T12:16:39.323Z,46.23
2017-10-21T12:19:06.839Z,18.40
2017-10-21T12:21:34.353Z,15.20
2017-10-21T12:24:01.965Z,13.27
2017-10-21T12:26:29.533Z,16.27
2017-10-21T12:28:57.020Z,14.03
2017-10-21T12:31:24.506Z,16.37
2017-10-21T12:33:52.024Z,16.03
2017-10-21T12:36:19.515Z,10.03
2017-10-21T12:38:47.051Z,17.93
2017-10-21T12:41:14.535Z,10.63
2017-10-21T12:43:42.044Z,18.03
2017-10-21T12:46:09.567Z,16.53
2017-10-21T12:48:37.057Z,23.10
2017-10-21T12:51:04.617Z,17.50
2017-10-21T12:53:32.149Z,25.83
2017-10-21T12:55:59.715Z,12.10
2017-10-21T12:58:27.278Z,15.87
2017-10-21T13:00:54.805Z,19.70
2017-10-21T13:03:22.293Z,19.03
2017-10-21T13:05:49.853Z,21.63
2017-10-21T13:08:17.388Z,12.47
2017-10-21T13:10:44.880Z,22.17
2017-10-21T13:13:12.378Z,19.50
2017-10-21T13:15:39.913Z,16.93
2017-10-21T13:18:07.460Z,15.20
2017-10-21T13:20:34.944Z,13.60
2017-10-21T13:23:02.471Z,14.27
2017-10-21T13:25:29.956Z,14.27
2017-10-21T13:27:57.532Z,16.03
2017-10-21T13:30:25.068Z,18.20
2017-10-21T13:32:52.596Z,12.13
2017-10-21T13:35:20.107Z,19.10
2017-10-21T13:37:47.803Z,13.87
2017-10-21T13:40:15.298Z,16.77
2017-10-21T13:42:42.826Z,10.87
2017-10-21T13:45:10.359Z,12.80
2017-10-21T13:47:37.851Z,10.53
2017-10-21T13:50:05.352Z,17.63
2017-10-21T13:52:32.872Z,10.07
2017-10-21T13:55:00.429Z,12.33
2017-10-21T13:57:27.917Z,12.63
2017-10-21T13:59:55.640Z,26.67
2017-10-21T14:02:23.192Z,10.10
2017-10-21T14:04:50.688Z,14.00
2017-10-21T14:07:18.213Z,29.50
2017-10-21T14:09:45.796Z,13.17
2017-10-21T14:12:13.298Z,16.33
2017-10-21T14:14:40.857Z,10.83
2017-10-21T14:17:08.344Z,13.67
2017-10-21T14:19:35.828Z,12.50
2017-10-21T14:22:03.392Z,16.67
2017-10-21T14:24:30.888Z,16.80
2017-10-21T14:26:58.401Z,17.10
2017-10-21T14:29:25.918Z,14.13
2017-10-21T14:31:53.526Z,24.23
2017-10-21T14:34:21.017Z,12.97
2017-10-21T14:36:48.622Z,13.60
2017-10-21T14:39:16.105Z,8.60
2017-10-21T14:41:43.661Z,16.30
2017-10-21T14:44:11.175Z,10.37
2017-10-21T14:46:38.707Z,11.60
2017-10-21T14:49:06.222Z,13.80
2017-10-21T14:51:33.714Z,16.73
2017-10-21T14:54:01.215Z,15.97
2017-10-21T14:56:28.734Z,13.83
2017-10-21T14:58:56.269Z,20.23
2017-10-21T15:01:25.469Z,13.80
2017-10-21T15:03:52.964Z,15.97
2017-10-21T15:06:20.496Z,17.13
2017-10-21T15:08:47.995Z,20.10
2017-10-21T15:11:15.486Z,14.60
2017-10-21T15:13:43.044Z,9.83
2017-10-21T15:16:10.543Z,13.13
2017-10-21T15:18:38.039Z,14.80
2017-10-21T15:21:05.602Z,13.23
2017-10-21T15:23:33.119Z,24.83
2017-10-21T15:26:00.611Z,18.77
2017-10-21T15:28:28.132Z,12.20
2017-10-21T15:30:55.663Z,18.73
2017-10-21T15:33:23.204Z,18.70
2017-10-21T15:35:50.719Z,14.17
2017-10-21T15:38:18.250Z,17.73
2017-10-21T15:40:45.749Z,13.07
2017-10-21T15:43:13.249Z,18.17
2017-10-21T15:45:40.820Z,12.50
2017-10-21T15:48:08.361Z,21.07
2017-10-21T15:50:35.899Z,24.30
2017-10-21T15:53:03.436Z,19.20
2017-10-21T15:55:30.943Z,22.00
2017-10-21T15:57:58.510Z,17.17
2017-10-21T16:00:26.001Z,19.83
2017-10-21T16:02:53.491Z,16.03
2017-10-21T16:05:21.020Z,29.97
2017-10-21T16:07:48.520Z,23.20
2017-10-21T16:10:16.015Z,28.47
2017-10-21T16:12:43.655Z,19.67
2017-10-21T16:15:11.213Z,20.77
2017-10-21T16:17:38.711Z,26.33
2017-10-21T16:20:06.237Z,23.07
2017-10-21T16:22:33.732Z,21.00
2017-10-21T16:25:01.217Z,19.03
2017-10-21T16:27:28.767Z,28.63
2017-10-21T16:29:56.257Z,33.33
2017-10-21T16:32:23.836Z,17.87
2017-10-21T16:34:51.404Z,24.10
2017-10-21T16:37:18.898Z,24.53
2017-10-21T16:39:46.491Z,35.60
2017-10-21T16:42:14.036Z,21.17
2017-10-21T16:44:41.612Z,26.50
2017-10-21T16:47:09.172Z,26.13
2017-10-21T16:49:36.732Z,23.20
2017-10-21T16:52:04.225Z,40.67
2017-10-21T16:54:31.741Z,27.50
2017-10-21T16:56:59.282Z,27.17
2017-10-21T16:59:26.769Z,23.50
2017-10-21T17:01:54.269Z,34.30
2017-10-21T17:04:21.799Z,26.57
2017-10-21T17:06:49.296Z,28.30
2017-10-21T17:09:16.783Z,26.97
2017-10-21T17:11:44.349Z,28.60
2017-10-21T17:14:12.033Z,27.30
2017-10-21T17:16:39.522Z,24.57
2017-10-21T17:19:07.016Z,19.73
2017-10-21T17:21:34.589Z,28.20
2017-10-21T17:24:02.095Z,19.40
2017-10-21T17:26:29.586Z,22.43
2017-10-21T17:28:57.112Z,29.03
2017-10-21T17:31:24.599Z,36.20
2017-10-21T17:33:52.087Z,23.50
2017-10-21T17:36:19.636Z,22.33
2017-10-21T17:38:47.202Z,19.90
2017-10-21T17:41:14.704Z,18.93
2017-10-21T17:43:42.317Z,22.17
2017-10-21T17:46:09.818Z,22.73
2017-10-21T17:48:37.317Z,25.23
2017-10-21T17:51:04.848Z,15.90
2017-10-21T17:53:32.354Z,21.10
2017-10-21T17:55:59.912Z,25.60
2017-10-21T17:58:27.464Z,21.30
2017-10-21T18:00:55.013Z,20.23
2017-10-21T18:03:22.507Z,25.93
2017-10-21T18:05:50.053Z,20.43
2017-10-21T18:08:17.607Z,19.80
2017-10-21T18:10:45.100Z,25.77
2017-10-21T18:13:12.630Z,25.73
2017-10-21T18:15:40.116Z,28.60
2017-10-21T18:18:07.633Z,22.50
2017-10-21T18:20:35.132Z,25.13
2017-10-21T18:23:02.692Z,24.90
2017-10-21T18:25:30.218Z,21.20
2017-10-21T18:27:57.716Z,21.57
2017-10-21T18:30:25.428Z,28.70
2017-10-21T18:32:52.928Z,22.50
2017-10-21T18:35:20.420Z,37.10
2017-10-21T18:37:48.012Z,27.00
2017-10-21T18:40:15.563Z,25.50
2017-10-21T18:42:43.122Z,30.33
2017-10-21T18:45:10.639Z,22.47
2017-10-21T18:47:38.171Z,32.57
2017-10-21T18:50:05.712Z,26.17
2017-10-21T18:52:33.211Z,28.30
2017-10-21T18:55:00.749Z,30.60
2017-10-21T18:57:28.249Z,40.87
2017-10-21T18:59:55.744Z,30.80
2017-10-21T19:02:23.304Z,25.80
2017-10-21T19:04:50.852Z,30.27
2017-10-21T19:07:18.411Z,32.23
2017-10-21T19:09:45.992Z,28.30
2017-10-21T19:12:13.490Z,31.63
2017-10-21T19:17:14.696Z,29.90
2017-10-21T19:19:42.225Z,26.20
2017-10-21T19:22:09.731Z,29.40
2017-10-21T19:24:37.233Z,25.00
2017-10-21T19:27:04.859Z,21.97
2017-10-21T19:29:32.352Z,25.40
2017-10-21T19:31:59.841Z,18.67
2017-10-21T19:34:27.427Z,36.93
2017-10-21T19:36:54.971Z,28.27
2017-10-21T19:39:22.497Z,28.30
2017-10-21T19:41:50.084Z,35.07
2017-10-21T19:44:17.638Z,56.83
2017-10-21T19:46:45.138Z,29.80
2017-10-21T19:49:12.630Z,40.53
2017-10-21T19:51:40.838Z,34.33
2017-10-21T19:54:08.354Z,31.60
2017-10-21T19:56:35.957Z,27.53
2017-10-21T19:59:03.477Z,37.93
2017-10-21T20:01:30.967Z,68.57
2017-10-21T20:03:58.631Z,36.47
2017-10-21T20:06:26.208Z,22.83
2017-10-21T20:08:53.715Z,35.17
2017-10-21T20:11:21.248Z,24.83
2017-10-21T20:13:48.749Z,24.37
2017-10-21T20:16:16.237Z,39.23
2017-10-21T20:18:43.779Z,41.60
2017-10-21T20:21:11.276Z,38.70
2017-10-21T20:23:38.773Z,31.27
2017-10-21T20:26:06.308Z,37.70
2017-10-21T20:28:33.800Z,31.17
2017-10-21T20:31:01.302Z,57.07
2017-10-21T20:33:28.832Z,42.97
2017-10-21T20:35:56.329Z,38.53
2017-10-21T20:38:23.839Z,47.37
2017-10-21T20:40:51.370Z,63.70
2017-10-21T20:43:18.868Z,25.13
2017-10-21T20:45:46.368Z,40.80
2017-10-21T20:48:13.926Z,24.80
2017-10-21T20:50:41.420Z,31.20
2017-10-21T20:53:08.947Z,34.73
2017-10-21T20:55:36.475Z,62.97
2017-10-21T20:58:04.032Z,31.23
2017-10-21T21:00:31.568Z,27.43
2017-10-21T21:02:59.087Z,30.53
2017-10-21T21:05:26.637Z,29.73
2017-10-21T21:07:54.144Z,34.50
2017-10-21T21:10:21.711Z,29.47
2017-10-21T21:12:49.254Z,34.17
2017-10-21T21:15:16.829Z,29.40
2017-10-21T21:17:44.330Z,24.47
2017-10-21T21:20:11.874Z,50.07
2017-10-21T21:22:39.377Z,61.97
2017-10-21T21:25:06.959Z,23.07
2017-10-21T21:27:34.475Z,25.00
2017-10-21T21:30:02.026Z,42.40
2017-10-21T21:32:29.540Z,27.87
2017-10-21T21:34:57.049Z,32.23
2017-10-21T21:37:24.764Z,23.70
2017-10-21T21:39:52.264Z,29.03
2017-10-21T21:42:19.873Z,39.33
2017-10-21T21:44:47.436Z,39.00
2017-10-21T21:47:14.950Z,25.03
2017-10-21T21:49:42.439Z,19.13
2017-10-21T21:52:09.947Z,29.40
2017-10-21T21:54:37.488Z,29.17
2017-10-21T21:57:04.979Z,25.50
2017-10-21T21:59:32.474Z,27.30
2017-10-21T22:02:00.012Z,32.03
2017-10-21T22:04:27.598Z,26.20
2017-10-21T22:06:55.164Z,24.37
2017-10-21T22:09:22.684Z,33.17
2017-10-21T22:11:50.239Z,27.63
2017-10-21T22:14:17.740Z,24.93
2017-10-21T22:16:45.237Z,24.83
2017-10-21T22:19:12.763Z,25.93
2017-10-21T22:21:40.320Z,29.67
2017-10-21T22:24:07.883Z,29.47
2017-10-21T22:26:35.434Z,32.40
2017-10-21T22:29:02.989Z,29.53
2017-10-21T22:31:30.516Z,23.77
2017-10-21T22:33:58.015Z,43.33
2017-10-21T22:36:25.504Z,24.67
2017-10-21T22:38:53.023Z,27.60
2017-10-21T22:41:20.549Z,33.07
2017-10-21T22:43:48.053Z,23.93
2017-10-21T22:46:15.552Z,22.47
2017-10-21T22:48:43.156Z,16.50
2017-10-21T22:51:10.660Z,22.30
2017-10-21T22:53:38.155Z,21.40
2017-10-21T22:56:05.692Z,36.97
2017-10-21T22:58:33.303Z,31.83
2017-10-21T23:01:00.857Z,32.27
2017-10-21T23:03:28.387Z,25.83
2017-10-21T23:05:55.980Z,35.67
2017-10-21T23:08:23.478Z,36.70
2017-10-21T23:10:51.012Z,33.13
2017-10-21T23:13:18.504Z,34.13
2017-10-21T23:15:46.006Z,21.23
2017-10-21T23:18:13.529Z,30.00
2017-10-21T23:20:41.127Z,29.40
2017-10-21T23:23:08.626Z,46.93
2017-10-21T23:25:36.149Z,31.97
2017-10-21T23:28:03.641Z,32.27
2017-10-21T23:30:31.139Z,38.13
2017-10-21T23:32:58.672Z,30.60
2017-10-21T23:35:26.199Z,28.70
2017-10-21T23:37:53.727Z,21.70
2017-10-21T23:40:21.264Z,36.03
2017-10-21T23:42:48.754Z,40.83
2017-10-21T23:45:16.327Z,26.47
2017-10-21T23:47:43.856Z,32.47
2017-10-21T23:50:11.348Z,39.33
2017-10-21T23:52:38.840Z,50.83
2017-10-21T23:55:06.352Z,33.30
2017-10-21T23:57:33.849Z,31.30
